Terminal Aerodrome Forecast
Issued by NWS Grand Forks, ND

Home | Current Version | Previous Version | Graphics & Text | Print | Product List | Glossary On
Versions: 1 2 3 4 5 6 7 8 9 10 11 12 13 14 15
818
FTUS43 KFGF 232334
TAFFAR
TAF
KFAR 232334Z 2400/2424 15012KT P6SM SCT060 BKN100
     FM240200 15012KT P6SM VCTS SCT050CB BKN100
     FM240800 16010KT P6SM BKN100
     FM241400 18011KT P6SM SCT250
     FM242000 18015KT P6SM FEW050 SCT150=

USA.gov is the U.S. government's official web portal to all federal, state and local government web resources and services.